sensor_id;sensor_type;location;lat;lon;timestamp;P1;durP1;ratioP1;P2;durP2;ratioP2
982;SDS011;480;48.124;11.578;2022-12-15T00:00:57;13.30;;;10.03;;
982;SDS011;480;48.124;11.578;2022-12-15T00:03:42;8.13;;;7.30;;
982;SDS011;480;48.124;11.578;2022-12-15T00:06:28;10.27;;;9.10;;
982;SDS011;480;48.124;11.578;2022-12-15T00:09:13;12.67;;;9.57;;
982;SDS011;480;48.124;11.578;2022-12-15T00:11:58;12.63;;;9.57;;
982;SDS011;480;48.124;11.578;2022-12-15T00:14:43;14.50;;;9.17;;
982;SDS011;480;48.124;11.578;2022-12-15T00:17:27;12.30;;;9.43;;
982;SDS011;480;48.124;11.578;2022-12-15T00:20:12;12.00;;;9.43;;
982;SDS011;480;48.124;11.578;2022-12-15T00:22:57;13.80;;;9.67;;
982;SDS011;480;48.124;11.578;2022-12-15T00:25:49;11.37;;;9.90;;
982;SDS011;480;48.124;11.578;2022-12-15T00:28:34;16.87;;;10.93;;
982;SDS011;480;48.124;11.578;2022-12-15T00:31:18;19.03;;;10.37;;
982;SDS011;480;48.124;11.578;2022-12-15T00:34:02;16.40;;;10.20;;
982;SDS011;480;48.124;11.578;2022-12-15T00:36:46;14.77;;;9.63;;
982;SDS011;480;48.124;11.578;2022-12-15T00:39:32;18.40;;;12.60;;
982;SDS011;480;48.124;11.578;2022-12-15T00:41:59;15.50;;;10.43;;
982;SDS011;480;48.124;11.578;2022-12-15T00:44:26;18.23;;;10.17;;
982;SDS011;480;48.124;11.578;2022-12-15T00:46:52;13.50;;;9.97;;
982;SDS011;480;48.124;11.578;2022-12-15T00:49:19;14.43;;;12.97;;
982;SDS011;480;48.124;11.578;2022-12-15T00:52:03;20.53;;;12.20;;
982;SDS011;480;48.124;11.578;2022-12-15T00:54:49;14.50;;;11.93;;
982;SDS011;480;48.124;11.578;2022-12-15T00:57:33;12.70;;;10.67;;
982;SDS011;480;48.124;11.578;2022-12-15T01:00:17;15.10;;;9.60;;
982;SDS011;480;48.124;11.578;2022-12-15T01:03:07;17.47;;;12.03;;
982;SDS011;480;48.124;11.578;2022-12-15T01:05:53;17.37;;;11.30;;
982;SDS011;480;48.124;11.578;2022-12-15T01:08:37;13.10;;;10.37;;
982;SDS011;480;48.124;11.578;2022-12-15T01:11:23;18.27;;;10.03;;
982;SDS011;480;48.124;11.578;2022-12-15T01:14:07;16.30;;;9.70;;
982;SDS011;480;48.124;11.578;2022-12-15T01:16:51;19.67;;;15.30;;
982;SDS011;480;48.124;11.578;2022-12-15T01:19:36;18.60;;;12.47;;
982;SDS011;480;48.124;11.578;2022-12-15T01:22:20;19.90;;;11.13;;
982;SDS011;480;48.124;11.578;2022-12-15T01:24:47;15.03;;;11.10;;
982;SDS011;480;48.124;11.578;2022-12-15T01:27:16;19.53;;;12.07;;
982;SDS011;480;48.124;11.578;2022-12-15T01:29:43;19.57;;;12.80;;
982;SDS011;480;48.124;11.578;2022-12-15T01:32:10;15.63;;;9.90;;
982;SDS011;480;48.124;11.578;2022-12-15T01:34:38;18.23;;;12.77;;
982;SDS011;480;48.124;11.578;2022-12-15T01:37:05;11.90;;;10.80;;
982;SDS011;480;48.124;11.578;2022-12-15T01:39:32;16.17;;;12.20;;
982;SDS011;480;48.124;11.578;2022-12-15T01:42:12;18.53;;;13.40;;
982;SDS011;480;48.124;11.578;2022-12-15T01:44:42;19.50;;;10.80;;
982;SDS011;480;48.124;11.578;2022-12-15T01:47:10;14.90;;;12.10;;
982;SDS011;480;48.124;11.578;2022-12-15T01:49:38;19.00;;;15.30;;
982;SDS011;480;48.124;11.578;2022-12-15T01:52:07;20.10;;;12.53;;
982;SDS011;480;48.124;11.578;2022-12-15T01:54:36;15.07;;;12.00;;
982;SDS011;480;48.124;11.578;2022-12-15T01:57:08;13.50;;;10.07;;
982;SDS011;480;48.124;11.578;2022-12-15T01:59:41;17.00;;;13.27;;
982;SDS011;480;48.124;11.578;2022-12-15T02:02:13;22.20;;;13.53;;
982;SDS011;480;48.124;11.578;2022-12-15T02:04:41;13.90;;;9.70;;
982;SDS011;480;48.124;11.578;2022-12-15T02:07:10;19.23;;;11.60;;
982;SDS011;480;48.124;11.578;2022-12-15T02:09:38;15.00;;;9.73;;
982;SDS011;480;48.124;11.578;2022-12-15T02:12:08;17.07;;;11.07;;
982;SDS011;480;48.124;11.578;2022-12-15T02:14:49;11.30;;;9.57;;
982;SDS011;480;48.124;11.578;2022-12-15T02:17:30;14.60;;;8.70;;
982;SDS011;480;48.124;11.578;2022-12-15T02:28:56;15.27;;;11.03;;
982;SDS011;480;48.124;11.578;2022-12-15T02:31:37;13.80;;;8.67;;
982;SDS011;480;48.124;11.578;2022-12-15T02:34:16;15.90;;;11.83;;
982;SDS011;480;48.124;11.578;2022-12-15T02:36:48;16.63;;;10.60;;
982;SDS011;480;48.124;11.578;2022-12-15T02:39:21;15.60;;;11.43;;
982;SDS011;480;48.124;11.578;2022-12-15T02:41:49;12.70;;;8.67;;
982;SDS011;480;48.124;11.578;2022-12-15T02:44:18;15.30;;;11.13;;
982;SDS011;480;48.124;11.578;2022-12-15T02:46:56;15.33;;;10.57;;
982;SDS011;480;48.124;11.578;2022-12-15T02:49:30;16.40;;;10.27;;
982;SDS011;480;48.124;11.578;2022-12-15T02:52:07;16.47;;;10.70;;
982;SDS011;480;48.124;11.578;2022-12-15T02:54:47;14.50;;;9.83;;
982;SDS011;480;48.124;11.578;2022-12-15T02:57:23;10.90;;;9.17;;
982;SDS011;480;48.124;11.578;2022-12-15T02:59:55;11.53;;;9.50;;
982;SDS011;480;48.124;11.578;2022-12-15T03:02:27;11.33;;;10.03;;
982;SDS011;480;48.124;11.578;2022-12-15T03:04:58;12.27;;;10.03;;
982;SDS011;480;48.124;11.578;2022-12-15T03:07:26;14.13;;;10.77;;
982;SDS011;480;48.124;11.578;2022-12-15T03:09:53;12.80;;;10.40;;
982;SDS011;480;48.124;11.578;2022-12-15T03:12:22;20.93;;;11.67;;
982;SDS011;480;48.124;11.578;2022-12-15T03:14:48;14.00;;;12.53;;
982;SDS011;480;48.124;11.578;2022-12-15T03:17:15;13.33;;;10.43;;
982;SDS011;480;48.124;11.578;2022-12-15T03:19:44;16.80;;;11.43;;
982;SDS011;480;48.124;11.578;2022-12-15T03:22:11;10.07;;;9.20;;
982;SDS011;480;48.124;11.578;2022-12-15T03:24:38;16.80;;;10.27;;
982;SDS011;480;48.124;11.578;2022-12-15T03:27:05;14.10;;;10.53;;
982;SDS011;480;48.124;11.578;2022-12-15T03:29:32;17.20;;;13.50;;
982;SDS011;480;48.124;11.578;2022-12-15T03:31:59;14.57;;;10.60;;
982;SDS011;480;48.124;11.578;2022-12-15T03:34:26;15.23;;;9.60;;
982;SDS011;480;48.124;11.578;2022-12-15T03:36:54;18.10;;;9.70;;
982;SDS011;480;48.124;11.578;2022-12-15T03:39:22;13.10;;;9.73;;
982;SDS011;480;48.124;11.578;2022-12-15T03:41:49;18.37;;;9.47;;
982;SDS011;480;48.124;11.578;2022-12-15T03:44:16;13.20;;;8.23;;
982;SDS011;480;48.124;11.578;2022-12-15T03:46:43;17.13;;;11.90;;
982;SDS011;480;48.124;11.578;2022-12-15T03:49:09;12.27;;;8.90;;
982;SDS011;480;48.124;11.578;2022-12-15T03:51:36;20.93;;;10.57;;
982;SDS011;480;48.124;11.578;2022-12-15T03:54:05;10.03;;;7.70;;
982;SDS011;480;48.124;11.578;2022-12-15T03:56:32;14.07;;;8.67;;
982;SDS011;480;48.124;11.578;2022-12-15T03:59:00;14.40;;;11.27;;
982;SDS011;480;48.124;11.578;2022-12-15T04:01:27;10.87;;;8.53;;
982;SDS011;480;48.124;11.578;2022-12-15T04:03:56;18.17;;;10.47;;
982;SDS011;480;48.124;11.578;2022-12-15T04:06:24;16.03;;;10.90;;
982;SDS011;480;48.124;11.578;2022-12-15T04:08:52;15.90;;;11.97;;
982;SDS011;480;48.124;11.578;2022-12-15T04:11:20;20.20;;;11.70;;
982;SDS011;480;48.124;11.578;2022-12-15T04:13:47;24.90;;;12.10;;
982;SDS011;480;48.124;11.578;2022-12-15T04:16:14;25.37;;;11.07;;
982;SDS011;480;48.124;11.578;2022-12-15T04:18:41;15.60;;;11.03;;
982;SDS011;480;48.124;11.578;2022-12-15T04:21:08;13.03;;;9.13;;
982;SDS011;480;48.124;11.578;2022-12-15T04:23:34;20.40;;;12.77;;
982;SDS011;480;48.124;11.578;2022-12-15T04:26:01;10.20;;;9.20;;
982;SDS011;480;48.124;11.578;2022-12-15T04:28:46;21.87;;;12.70;;
982;SDS011;480;48.124;11.578;2022-12-15T04:31:31;18.30;;;12.17;;
982;SDS011;480;48.124;11.578;2022-12-15T04:34:17;16.30;;;10.20;;
982;SDS011;480;48.124;11.578;2022-12-15T04:37:04;10.77;;;9.63;;
982;SDS011;480;48.124;11.578;2022-12-15T04:39:52;18.27;;;10.00;;
982;SDS011;480;48.124;11.578;2022-12-15T04:42:38;12.30;;;10.07;;
982;SDS011;480;48.124;11.578;2022-12-15T04:45:26;11.40;;;9.20;;
982;SDS011;480;48.124;11.578;2022-12-15T04:48:11;16.33;;;11.03;;
982;SDS011;480;48.124;11.578;2022-12-15T04:50:55;18.00;;;10.10;;
982;SDS011;480;48.124;11.578;2022-12-15T04:53:39;19.37;;;11.03;;
982;SDS011;480;48.124;11.578;2022-12-15T04:56:25;18.50;;;10.53;;
982;SDS011;480;48.124;11.578;2022-12-15T04:59:10;20.60;;;12.33;;
982;SDS011;480;48.124;11.578;2022-12-15T05:01:56;19.40;;;10.90;;
982;SDS011;480;48.124;11.578;2022-12-15T05:04:40;11.87;;;9.40;;
982;SDS011;480;48.124;11.578;2022-12-15T05:07:24;11.60;;;9.00;;
982;SDS011;480;48.124;11.578;2022-12-15T05:10:09;27.93;;;12.13;;
982;SDS011;480;48.124;11.578;2022-12-15T05:12:54;21.60;;;12.07;;
982;SDS011;480;48.124;11.578;2022-12-15T05:15:38;16.63;;;11.17;;
982;SDS011;480;48.124;11.578;2022-12-15T05:18:24;18.80;;;12.43;;
982;SDS011;480;48.124;11.578;2022-12-15T05:21:08;30.53;;;16.60;;
982;SDS011;480;48.124;11.578;2022-12-15T05:23:52;14.70;;;10.50;;
982;SDS011;480;48.124;11.578;2022-12-15T05:26:36;14.57;;;11.70;;
982;SDS011;480;48.124;11.578;2022-12-15T05:29:20;18.60;;;11.73;;
982;SDS011;480;48.124;11.578;2022-12-15T05:32:05;18.17;;;9.20;;
982;SDS011;480;48.124;11.578;2022-12-15T05:34:34;16.90;;;9.60;;
982;SDS011;480;48.124;11.578;2022-12-15T05:37:03;19.30;;;10.50;;
982;SDS011;480;48.124;11.578;2022-12-15T05:39:31;17.60;;;12.07;;
982;SDS011;480;48.124;11.578;2022-12-15T05:41:58;23.90;;;12.37;;
982;SDS011;480;48.124;11.578;2022-12-15T05:44:25;18.00;;;11.20;;
982;SDS011;480;48.124;11.578;2022-12-15T05:46:54;23.27;;;12.40;;
982;SDS011;480;48.124;11.578;2022-12-15T05:49:21;27.43;;;16.37;;
982;SDS011;480;48.124;11.578;2022-12-15T05:51:51;23.77;;;14.17;;
982;SDS011;480;48.124;11.578;2022-12-15T05:54:18;25.87;;;16.83;;
982;SDS011;480;48.124;11.578;2022-12-15T05:56:46;22.23;;;14.83;;
982;SDS011;480;48.124;11.578;2022-12-15T05:59:13;16.97;;;10.40;;
982;SDS011;480;48.124;11.578;2022-12-15T06:01:40;13.50;;;10.37;;
982;SDS011;480;48.124;11.578;2022-12-15T06:04:08;15.13;;;11.53;;
982;SDS011;480;48.124;11.578;2022-12-15T06:06:36;14.33;;;11.03;;
982;SDS011;480;48.124;11.578;2022-12-15T06:09:05;24.07;;;15.27;;
982;SDS011;480;48.124;11.578;2022-12-15T06:11:33;12.57;;;10.57;;
982;SDS011;480;48.124;11.578;2022-12-15T06:14:01;15.53;;;9.40;;
982;SDS011;480;48.124;11.578;2022-12-15T06:16:28;16.47;;;9.90;;
982;SDS011;480;48.124;11.578;2022-12-15T06:18:57;28.10;;;14.03;;
982;SDS011;480;48.124;11.578;2022-12-15T06:21:25;16.47;;;9.97;;
982;SDS011;480;48.124;11.578;2022-12-15T06:23:55;21.43;;;11.83;;
982;SDS011;480;48.124;11.578;2022-12-15T06:26:24;15.77;;;10.40;;
982;SDS011;480;48.124;11.578;2022-12-15T06:28:53;14.83;;;10.40;;
982;SDS011;480;48.124;11.578;2022-12-15T06:31:21;19.50;;;11.97;;
982;SDS011;480;48.124;11.578;2022-12-15T06:33:49;14.23;;;9.27;;
982;SDS011;480;48.124;11.578;2022-12-15T06:36:17;19.40;;;10.97;;
982;SDS011;480;48.124;11.578;2022-12-15T06:38:44;15.63;;;10.13;;
982;SDS011;480;48.124;11.578;2022-12-15T06:41:13;20.97;;;12.17;;
982;SDS011;480;48.124;11.578;2022-12-15T06:43:47;19.33;;;10.33;;
982;SDS011;480;48.124;11.578;2022-12-15T06:46:15;20.63;;;12.47;;
982;SDS011;480;48.124;11.578;2022-12-15T06:48:44;17.93;;;10.90;;
982;SDS011;480;48.124;11.578;2022-12-15T06:51:11;22.33;;;12.47;;
982;SDS011;480;48.124;11.578;2022-12-15T06:53:43;14.23;;;9.30;;
982;SDS011;480;48.124;11.578;2022-12-15T06:56:14;21.73;;;11.07;;
982;SDS011;480;48.124;11.578;2022-12-15T06:58:45;11.57;;;9.00;;
982;SDS011;480;48.124;11.578;2022-12-15T07:01:12;21.40;;;11.57;;
982;SDS011;480;48.124;11.578;2022-12-15T07:03:40;15.53;;;11.37;;
982;SDS011;480;48.124;11.578;2022-12-15T07:06:08;20.20;;;15.23;;
982;SDS011;480;48.124;11.578;2022-12-15T07:08:37;15.53;;;11.13;;
982;SDS011;480;48.124;11.578;2022-12-15T07:11:04;23.50;;;12.37;;
982;SDS011;480;48.124;11.578;2022-12-15T07:13:33;17.80;;;11.00;;
982;SDS011;480;48.124;11.578;2022-12-15T07:16:01;14.13;;;9.63;;
982;SDS011;480;48.124;11.578;2022-12-15T07:18:30;22.00;;;14.03;;
982;SDS011;480;48.124;11.578;2022-12-15T07:21:00;12.43;;;8.70;;
982;SDS011;480;48.124;11.578;2022-12-15T07:23:28;16.30;;;10.80;;
982;SDS011;480;48.124;11.578;2022-12-15T07:25:55;16.70;;;10.00;;
982;SDS011;480;48.124;11.578;2022-12-15T07:28:22;17.70;;;12.90;;
982;SDS011;480;48.124;11.578;2022-12-15T07:30:49;16.53;;;12.80;;
982;SDS011;480;48.124;11.578;2022-12-15T07:33:19;24.67;;;14.07;;
982;SDS011;480;48.124;11.578;2022-12-15T07:35:51;20.10;;;14.13;;
982;SDS011;480;48.124;11.578;2022-12-15T07:38:18;18.23;;;12.80;;
982;SDS011;480;48.124;11.578;2022-12-15T07:40:45;24.37;;;13.93;;
982;SDS011;480;48.124;11.578;2022-12-15T07:43:13;23.10;;;13.10;;
982;SDS011;480;48.124;11.578;2022-12-15T07:45:40;22.07;;;12.53;;
982;SDS011;480;48.124;11.578;2022-12-15T07:48:08;18.43;;;11.63;;
982;SDS011;480;48.124;11.578;2022-12-15T07:50:37;17.60;;;11.70;;
982;SDS011;480;48.124;11.578;2022-12-15T07:53:04;20.53;;;12.37;;
982;SDS011;480;48.124;11.578;2022-12-15T07:55:31;21.23;;;14.73;;
982;SDS011;480;48.124;11.578;2022-12-15T07:57:59;16.50;;;13.47;;
982;SDS011;480;48.124;11.578;2022-12-15T08:00:26;16.23;;;11.87;;
982;SDS011;480;48.124;11.578;2022-12-15T08:02:53;19.17;;;12.93;;
982;SDS011;480;48.124;11.578;2022-12-15T08:05:20;24.00;;;14.17;;
982;SDS011;480;48.124;11.578;2022-12-15T08:07:49;23.10;;;13.70;;
982;SDS011;480;48.124;11.578;2022-12-15T08:10:16;17.60;;;12.57;;
982;SDS011;480;48.124;11.578;2022-12-15T08:12:43;11.67;;;9.60;;
982;SDS011;480;48.124;11.578;2022-12-15T08:15:10;17.23;;;12.00;;
982;SDS011;480;48.124;11.578;2022-12-15T08:17:37;22.90;;;12.67;;
982;SDS011;480;48.124;11.578;2022-12-15T08:20:04;15.90;;;11.07;;
982;SDS011;480;48.124;11.578;2022-12-15T08:22:32;22.17;;;12.60;;
982;SDS011;480;48.124;11.578;2022-12-15T08:25:01;25.63;;;13.40;;
982;SDS011;480;48.124;11.578;2022-12-15T08:27:28;26.27;;;14.27;;
982;SDS011;480;48.124;11.578;2022-12-15T08:29:55;24.80;;;14.10;;
982;SDS011;480;48.124;11.578;2022-12-15T08:32:22;23.93;;;15.77;;
982;SDS011;480;48.124;11.578;2022-12-15T08:34:49;27.00;;;14.90;;
982;SDS011;480;48.124;11.578;2022-12-15T08:37:16;26.23;;;15.90;;
982;SDS011;480;48.124;11.578;2022-12-15T08:39:43;26.30;;;16.30;;
982;SDS011;480;48.124;11.578;2022-12-15T08:42:11;27.37;;;17.80;;
982;SDS011;480;48.124;11.578;2022-12-15T08:44:39;23.57;;;16.60;;
982;SDS011;480;48.124;11.578;2022-12-15T08:47:06;27.57;;;14.60;;
982;SDS011;480;48.124;11.578;2022-12-15T08:49:33;30.93;;;20.17;;
982;SDS011;480;48.124;11.578;2022-12-15T08:52:00;26.07;;;16.90;;
982;SDS011;480;48.124;11.578;2022-12-15T08:54:27;22.43;;;14.17;;
982;SDS011;480;48.124;11.578;2022-12-15T08:56:54;18.37;;;12.23;;
982;SDS011;480;48.124;11.578;2022-12-15T08:59:22;27.20;;;13.97;;
982;SDS011;480;48.124;11.578;2022-12-15T09:01:49;29.67;;;16.60;;
982;SDS011;480;48.124;11.578;2022-12-15T09:04:16;25.47;;;18.67;;
982;SDS011;480;48.124;11.578;2022-12-15T09:06:44;21.43;;;14.13;;
982;SDS011;480;48.124;11.578;2022-12-15T09:09:11;27.47;;;15.77;;
982;SDS011;480;48.124;11.578;2022-12-15T09:11:38;25.00;;;14.50;;
982;SDS011;480;48.124;11.578;2022-12-15T09:14:06;24.47;;;13.13;;
982;SDS011;480;48.124;11.578;2022-12-15T09:16:34;22.73;;;12.67;;
982;SDS011;480;48.124;11.578;2022-12-15T09:19:01;26.20;;;13.13;;
982;SDS011;480;48.124;11.578;2022-12-15T09:21:29;21.63;;;17.80;;
982;SDS011;480;48.124;11.578;2022-12-15T09:23:58;29.20;;;18.57;;
982;SDS011;480;48.124;11.578;2022-12-15T09:26:26;32.63;;;17.87;;
982;SDS011;480;48.124;11.578;2022-12-15T09:28:54;19.27;;;12.10;;
982;SDS011;480;48.124;11.578;2022-12-15T09:31:24;24.13;;;13.80;;
982;SDS011;480;48.124;11.578;2022-12-15T09:33:54;23.73;;;14.50;;
982;SDS011;480;48.124;11.578;2022-12-15T09:36:23;16.93;;;12.67;;
982;SDS011;480;48.124;11.578;2022-12-15T09:38:51;29.60;;;19.10;;
982;SDS011;480;48.124;11.578;2022-12-15T09:41:20;18.57;;;10.90;;
982;SDS011;480;48.124;11.578;2022-12-15T09:43:53;25.60;;;14.53;;
982;SDS011;480;48.124;11.578;2022-12-15T09:46:24;23.50;;;12.67;;
982;SDS011;480;48.124;11.578;2022-12-15T09:48:57;26.77;;;16.83;;
982;SDS011;480;48.124;11.578;2022-12-15T09:51:29;23.97;;;13.90;;
982;SDS011;480;48.124;11.578;2022-12-15T09:54:02;33.37;;;15.20;;
982;SDS011;480;48.124;11.578;2022-12-15T09:56:32;17.00;;;13.40;;
982;SDS011;480;48.124;11.578;2022-12-15T09:59:04;26.60;;;14.57;;
982;SDS011;480;48.124;11.578;2022-12-15T10:01:42;34.03;;;20.50;;
982;SDS011;480;48.124;11.578;2022-12-15T10:04:18;25.37;;;14.23;;
982;SDS011;480;48.124;11.578;2022-12-15T10:06:59;25.90;;;15.43;;
982;SDS011;480;48.124;11.578;2022-12-15T10:09:32;23.27;;;13.93;;
982;SDS011;480;48.124;11.578;2022-12-15T10:12:00;20.83;;;16.63;;
982;SDS011;480;48.124;11.578;2022-12-15T10:14:34;23.83;;;14.93;;
982;SDS011;480;48.124;11.578;2022-12-15T10:17:05;32.17;;;17.30;;
982;SDS011;480;48.124;11.578;2022-12-15T10:19:48;23.27;;;12.67;;
982;SDS011;480;48.124;11.578;2022-12-15T10:22:22;29.17;;;18.57;;
982;SDS011;480;48.124;11.578;2022-12-15T10:24:53;30.77;;;15.93;;
982;SDS011;480;48.124;11.578;2022-12-15T10:27:24;28.90;;;16.47;;
982;SDS011;480;48.124;11.578;2022-12-15T10:30:02;37.57;;;19.40;;
982;SDS011;480;48.124;11.578;2022-12-15T10:32:38;23.60;;;15.73;;
982;SDS011;480;48.124;11.578;2022-12-15T10:35:14;31.10;;;17.50;;
982;SDS011;480;48.124;11.578;2022-12-15T10:37:45;29.50;;;19.63;;
982;SDS011;480;48.124;11.578;2022-12-15T10:40:15;30.00;;;15.87;;
982;SDS011;480;48.124;11.578;2022-12-15T10:42:46;28.43;;;16.17;;
982;SDS011;480;48.124;11.578;2022-12-15T10:45:32;31.43;;;16.67;;
982;SDS011;480;48.124;11.578;2022-12-15T10:48:03;41.20;;;19.50;;
982;SDS011;480;48.124;11.578;2022-12-15T10:50:32;24.60;;;16.30;;
982;SDS011;480;48.124;11.578;2022-12-15T10:53:02;23.83;;;16.93;;
982;SDS011;480;48.124;11.578;2022-12-15T10:55:35;27.83;;;16.00;;
982;SDS011;480;48.124;11.578;2022-12-15T10:58:06;34.23;;;22.63;;
982;SDS011;480;48.124;11.578;2022-12-15T11:00:42;27.10;;;14.03;;
982;SDS011;480;48.124;11.578;2022-12-15T11:03:20;23.67;;;14.40;;
982;SDS011;480;48.124;11.578;2022-12-15T11:05:54;29.63;;;16.80;;
982;SDS011;480;48.124;11.578;2022-12-15T11:08:23;30.57;;;16.87;;
982;SDS011;480;48.124;11.578;2022-12-15T11:10:52;29.73;;;17.00;;
982;SDS011;480;48.124;11.578;2022-12-15T11:13:38;27.60;;;13.83;;
982;SDS011;480;48.124;11.578;2022-12-15T11:16:13;29.60;;;19.77;;
982;SDS011;480;48.124;11.578;2022-12-15T11:18:45;27.07;;;19.27;;
982;SDS011;480;48.124;11.578;2022-12-15T11:21:19;26.87;;;18.63;;
982;SDS011;480;48.124;11.578;2022-12-15T11:23:50;31.33;;;13.87;;
982;SDS011;480;48.124;11.578;2022-12-15T11:26:26;26.87;;;17.20;;
982;SDS011;480;48.124;11.578;2022-12-15T11:29:05;24.20;;;13.07;;
982;SDS011;480;48.124;11.578;2022-12-15T11:31:50;27.80;;;14.40;;
982;SDS011;480;48.124;11.578;2022-12-15T11:34:19;33.40;;;18.50;;
982;SDS011;480;48.124;11.578;2022-12-15T11:37:09;34.97;;;19.53;;
982;SDS011;480;48.124;11.578;2022-12-15T11:39:53;40.23;;;14.37;;
982;SDS011;480;48.124;11.578;2022-12-15T11:42:29;40.07;;;16.10;;
982;SDS011;480;48.124;11.578;2022-12-15T11:45:08;24.53;;;17.53;;
982;SDS011;480;48.124;11.578;2022-12-15T11:47:45;24.07;;;15.77;;
982;SDS011;480;48.124;11.578;2022-12-15T11:50:18;25.20;;;18.77;;
982;SDS011;480;48.124;11.578;2022-12-15T11:53:00;27.07;;;17.23;;
982;SDS011;480;48.124;11.578;2022-12-15T11:55:39;30.23;;;18.07;;
982;SDS011;480;48.124;11.578;2022-12-15T11:58:22;23.50;;;17.60;;
982;SDS011;480;48.124;11.578;2022-12-15T12:01:10;25.77;;;17.37;;
982;SDS011;480;48.124;11.578;2022-12-15T12:03:51;29.60;;;17.70;;
982;SDS011;480;48.124;11.578;2022-12-15T12:06:30;26.80;;;16.50;;
982;SDS011;480;48.124;11.578;2022-12-15T12:12:00;25.70;;;15.90;;
982;SDS011;480;48.124;11.578;2022-12-15T12:14:42;32.77;;;19.17;;
982;SDS011;480;48.124;11.578;2022-12-15T12:17:19;26.17;;;15.40;;
982;SDS011;480;48.124;11.578;2022-12-15T12:19:53;23.70;;;16.47;;
982;SDS011;480;48.124;11.578;2022-12-15T12:22:24;28.53;;;19.00;;
982;SDS011;480;48.124;11.578;2022-12-15T12:24:57;28.50;;;15.47;;
982;SDS011;480;48.124;11.578;2022-12-15T12:27:29;29.43;;;17.40;;
982;SDS011;480;48.124;11.578;2022-12-15T12:30:04;24.00;;;17.83;;
982;SDS011;480;48.124;11.578;2022-12-15T12:32:38;24.83;;;17.60;;
982;SDS011;480;48.124;11.578;2022-12-15T12:35:14;30.53;;;15.70;;
982;SDS011;480;48.124;11.578;2022-12-15T12:37:47;30.87;;;20.40;;
982;SDS011;480;48.124;11.578;2022-12-15T12:40:20;20.63;;;14.30;;
982;SDS011;480;48.124;11.578;2022-12-15T12:42:54;35.27;;;18.80;;
982;SDS011;480;48.124;11.578;2022-12-15T12:45:23;24.77;;;16.73;;
982;SDS011;480;48.124;11.578;2022-12-15T12:47:54;20.70;;;12.57;;
982;SDS011;480;48.124;11.578;2022-12-15T12:50:25;28.43;;;18.33;;
982;SDS011;480;48.124;11.578;2022-12-15T12:52:55;29.00;;;17.70;;
982;SDS011;480;48.124;11.578;2022-12-15T12:55:27;26.47;;;17.97;;
982;SDS011;480;48.124;11.578;2022-12-15T12:58:01;22.60;;;15.30;;
982;SDS011;480;48.124;11.578;2022-12-15T13:00:29;29.97;;;19.77;;
982;SDS011;480;48.124;11.578;2022-12-15T13:05:44;23.20;;;14.57;;
982;SDS011;480;48.124;11.578;2022-12-15T13:14:25;29.43;;;16.40;;
982;SDS011;480;48.124;11.578;2022-12-15T13:17:02;26.90;;;16.17;;
982;SDS011;480;48.124;11.578;2022-12-15T13:22:48;27.20;;;13.97;;
982;SDS011;480;48.124;11.578;2022-12-15T13:25:36;24.83;;;14.93;;
982;SDS011;480;48.124;11.578;2022-12-15T13:28:16;23.43;;;13.07;;
982;SDS011;480;48.124;11.578;2022-12-15T13:37:04;22.40;;;14.27;;
982;SDS011;480;48.124;11.578;2022-12-15T13:40:16;24.73;;;12.70;;
982;SDS011;480;48.124;11.578;2022-12-15T13:42:58;29.87;;;13.20;;
982;SDS011;480;48.124;11.578;2022-12-15T13:45:45;27.17;;;17.07;;
982;SDS011;480;48.124;11.578;2022-12-15T13:51:09;23.10;;;14.27;;
982;SDS011;480;48.124;11.578;2022-12-15T13:54:11;21.40;;;12.63;;
982;SDS011;480;48.124;11.578;2022-12-15T13:56:44;14.40;;;9.97;;
982;SDS011;480;48.124;11.578;2022-12-15T13:59:30;25.97;;;15.43;;
982;SDS011;480;48.124;11.578;2022-12-15T14:02:21;31.70;;;16.67;;
982;SDS011;480;48.124;11.578;2022-12-15T14:05:08;24.47;;;16.87;;
982;SDS011;480;48.124;11.578;2022-12-15T14:07:41;16.27;;;12.00;;
982;SDS011;480;48.124;11.578;2022-12-15T14:10:15;24.27;;;13.27;;
982;SDS011;480;48.124;11.578;2022-12-15T14:12:44;28.23;;;14.57;;
982;SDS011;480;48.124;11.578;2022-12-15T14:15:14;36.80;;;16.23;;
982;SDS011;480;48.124;11.578;2022-12-15T14:17:43;17.90;;;11.77;;
982;SDS011;480;48.124;11.578;2022-12-15T14:20:18;20.33;;;13.50;;
982;SDS011;480;48.124;11.578;2022-12-15T14:22:47;28.10;;;18.40;;
982;SDS011;480;48.124;11.578;2022-12-15T14:25:16;23.10;;;14.90;;
982;SDS011;480;48.124;11.578;2022-12-15T14:27:46;23.87;;;15.07;;
982;SDS011;480;48.124;11.578;2022-12-15T14:30:18;30.97;;;16.50;;
982;SDS011;480;48.124;11.578;2022-12-15T14:32:48;31.10;;;14.17;;
982;SDS011;480;48.124;11.578;2022-12-15T14:35:21;23.93;;;12.57;;
982;SDS011;480;48.124;11.578;2022-12-15T14:37:54;18.10;;;12.33;;
982;SDS011;480;48.124;11.578;2022-12-15T14:40:23;25.17;;;14.37;;
982;SDS011;480;48.124;11.578;2022-12-15T14:42:53;22.83;;;16.03;;
982;SDS011;480;48.124;11.578;2022-12-15T14:45:20;18.13;;;9.87;;
982;SDS011;480;48.124;11.578;2022-12-15T14:47:52;19.20;;;11.83;;
982;SDS011;480;48.124;11.578;2022-12-15T14:50:23;33.50;;;18.77;;
982;SDS011;480;48.124;11.578;2022-12-15T14:52:51;12.00;;;9.07;;
982;SDS011;480;48.124;11.578;2022-12-15T14:55:25;29.53;;;12.10;;
982;SDS011;480;48.124;11.578;2022-12-15T14:57:57;26.27;;;14.93;;
982;SDS011;480;48.124;11.578;2022-12-15T15:00:25;20.83;;;13.07;;
982;SDS011;480;48.124;11.578;2022-12-15T15:05:48;24.47;;;15.43;;
982;SDS011;480;48.124;11.578;2022-12-15T15:08:20;26.40;;;17.50;;
982;SDS011;480;48.124;11.578;2022-12-15T15:10:52;26.23;;;17.27;;
982;SDS011;480;48.124;11.578;2022-12-15T15:13:22;25.93;;;16.13;;
982;SDS011;480;48.124;11.578;2022-12-15T15:15:51;24.43;;;14.10;;
982;SDS011;480;48.124;11.578;2022-12-15T15:18:20;24.67;;;11.80;;
982;SDS011;480;48.124;11.578;2022-12-15T15:20:53;29.57;;;16.10;;
982;SDS011;480;48.124;11.578;2022-12-15T15:23:23;29.27;;;14.53;;
982;SDS011;480;48.124;11.578;2022-12-15T15:25:50;22.67;;;15.93;;
982;SDS011;480;48.124;11.578;2022-12-15T15:28:20;27.17;;;14.60;;
982;SDS011;480;48.124;11.578;2022-12-15T15:30:49;30.17;;;18.63;;
982;SDS011;480;48.124;11.578;2022-12-15T15:33:18;32.23;;;19.23;;
982;SDS011;480;48.124;11.578;2022-12-15T15:35:46;24.67;;;16.00;;
982;SDS011;480;48.124;11.578;2022-12-15T15:38:23;23.73;;;17.20;;
982;SDS011;480;48.124;11.578;2022-12-15T15:40:53;31.17;;;18.97;;
982;SDS011;480;48.124;11.578;2022-12-15T15:43:23;33.20;;;16.10;;
982;SDS011;480;48.124;11.578;2022-12-15T15:45:54;30.90;;;14.37;;
982;SDS011;480;48.124;11.578;2022-12-15T15:48:26;22.63;;;14.60;;
982;SDS011;480;48.124;11.578;2022-12-15T15:50:57;17.90;;;14.10;;
982;SDS011;480;48.124;11.578;2022-12-15T15:53:28;35.40;;;17.77;;
982;SDS011;480;48.124;11.578;2022-12-15T15:55:57;34.27;;;18.27;;
982;SDS011;480;48.124;11.578;2022-12-15T15:58:25;22.87;;;11.90;;
982;SDS011;480;48.124;11.578;2022-12-15T16:00:53;26.97;;;13.53;;
982;SDS011;480;48.124;11.578;2022-12-15T16:03:20;21.50;;;13.87;;
982;SDS011;480;48.124;11.578;2022-12-15T16:05:49;28.13;;;16.27;;
982;SDS011;480;48.124;11.578;2022-12-15T16:08:19;26.90;;;17.00;;
982;SDS011;480;48.124;11.578;2022-12-15T16:10:52;25.47;;;16.20;;
982;SDS011;480;48.124;11.578;2022-12-15T16:13:20;29.07;;;14.17;;